sensor_id;sensor_type;location;lat;lon;timestamp;P1;durP1;ratioP1;P2;durP2;ratioP2
48014;SDS011;33780;51.034;7.120;2023-01-25T00:01:51;12.15;;;4.80;;
48014;SDS011;33780;51.034;7.120;2023-01-25T00:04:20;9.68;;;4.22;;
48014;SDS011;33780;51.034;7.120;2023-01-25T00:06:46;11.82;;;4.82;;
48014;SDS011;33780;51.034;7.120;2023-01-25T00:09:12;9.18;;;3.92;;
48014;SDS011;33780;51.034;7.120;2023-01-25T00:11:37;9.73;;;4.80;;
48014;SDS011;33780;51.034;7.120;2023-01-25T00:14:03;10.23;;;4.32;;
48014;SDS011;33780;51.034;7.120;2023-01-25T00:16:29;10.32;;;4.70;;
48014;SDS011;33780;51.034;7.120;2023-01-25T00:18:54;10.85;;;4.38;;
48014;SDS011;33780;51.034;7.120;2023-01-25T00:21:21;10.27;;;4.32;;
48014;SDS011;33780;51.034;7.120;2023-01-25T00:23:48;9.77;;;4.70;;
48014;SDS011;33780;51.034;7.120;2023-01-25T00:26:13;9.60;;;4.03;;
48014;SDS011;33780;51.034;7.120;2023-01-25T00:28:39;12.05;;;4.05;;
48014;SDS011;33780;51.034;7.120;2023-01-25T00:31:05;9.25;;;3.97;;
48014;SDS011;33780;51.034;7.120;2023-01-25T00:36:31;8.50;;;4.18;;
48014;SDS011;33780;51.034;7.120;2023-01-25T00:39:03;10.10;;;3.95;;
48014;SDS011;33780;51.034;7.120;2023-01-25T00:41:35;9.93;;;4.05;;
48014;SDS011;33780;51.034;7.120;2023-01-25T00:44:00;9.23;;;3.90;;
48014;SDS011;33780;51.034;7.120;2023-01-25T00:46:26;8.63;;;4.18;;
48014;SDS011;33780;51.034;7.120;2023-01-25T00:48:54;11.55;;;4.28;;
48014;SDS011;33780;51.034;7.120;2023-01-25T00:51:20;9.90;;;4.13;;
48014;SDS011;33780;51.034;7.120;2023-01-25T00:53:46;10.18;;;4.60;;
48014;SDS011;33780;51.034;7.120;2023-01-25T00:56:11;8.82;;;4.22;;
48014;SDS011;33780;51.034;7.120;2023-01-25T00:58:37;9.90;;;4.22;;
48014;SDS011;33780;51.034;7.120;2023-01-25T01:01:02;10.10;;;4.45;;
48014;SDS011;33780;51.034;7.120;2023-01-25T01:03:27;9.65;;;4.20;;
48014;SDS011;33780;51.034;7.120;2023-01-25T01:06:06;10.90;;;4.68;;
48014;SDS011;33780;51.034;7.120;2023-01-25T01:08:34;10.80;;;4.40;;
48014;SDS011;33780;51.034;7.120;2023-01-25T01:11:03;11.23;;;5.03;;
48014;SDS011;33780;51.034;7.120;2023-01-25T01:13:30;9.10;;;4.35;;
48014;SDS011;33780;51.034;7.120;2023-01-25T01:15:56;9.85;;;4.70;;
48014;SDS011;33780;51.034;7.120;2023-01-25T01:18:24;10.43;;;4.68;;
48014;SDS011;33780;51.034;7.120;2023-01-25T01:20:50;9.38;;;4.35;;
48014;SDS011;33780;51.034;7.120;2023-01-25T01:23:16;11.88;;;4.47;;
48014;SDS011;33780;51.034;7.120;2023-01-25T01:25:41;11.10;;;4.25;;
48014;SDS011;33780;51.034;7.120;2023-01-25T01:28:07;10.23;;;4.50;;
48014;SDS011;33780;51.034;7.120;2023-01-25T01:30:32;10.38;;;4.40;;
48014;SDS011;33780;51.034;7.120;2023-01-25T01:32:57;9.80;;;4.38;;
48014;SDS011;33780;51.034;7.120;2023-01-25T01:35:22;10.52;;;4.15;;
48014;SDS011;33780;51.034;7.120;2023-01-25T01:37:48;12.23;;;4.88;;
48014;SDS011;33780;51.034;7.120;2023-01-25T01:40:13;11.98;;;5.22;;
48014;SDS011;33780;51.034;7.120;2023-01-25T01:48:16;9.95;;;4.65;;
48014;SDS011;33780;51.034;7.120;2023-01-25T01:51:04;12.55;;;5.03;;
48014;SDS011;33780;51.034;7.120;2023-01-25T01:53:39;9.32;;;4.38;;
48014;SDS011;33780;51.034;7.120;2023-01-25T01:56:09;11.65;;;4.65;;
48014;SDS011;33780;51.034;7.120;2023-01-25T01:58:39;11.48;;;4.78;;
48014;SDS011;33780;51.034;7.120;2023-01-25T02:01:07;9.95;;;4.68;;
48014;SDS011;33780;51.034;7.120;2023-01-25T02:03:32;10.23;;;4.68;;
48014;SDS011;33780;51.034;7.120;2023-01-25T02:06:02;9.68;;;3.70;;
48014;SDS011;33780;51.034;7.120;2023-01-25T02:08:34;10.07;;;4.63;;
48014;SDS011;33780;51.034;7.120;2023-01-25T02:11:00;10.65;;;4.53;;
48014;SDS011;33780;51.034;7.120;2023-01-25T02:13:27;10.45;;;3.90;;
48014;SDS011;33780;51.034;7.120;2023-01-25T02:15:53;10.60;;;4.30;;
48014;SDS011;33780;51.034;7.120;2023-01-25T02:18:20;10.65;;;4.22;;
48014;SDS011;33780;51.034;7.120;2023-01-25T02:20:48;10.15;;;4.57;;
48014;SDS011;33780;51.034;7.120;2023-01-25T02:26:04;10.73;;;4.90;;
48014;SDS011;33780;51.034;7.120;2023-01-25T02:28:32;10.30;;;4.85;;
48014;SDS011;33780;51.034;7.120;2023-01-25T02:31:02;9.10;;;4.10;;
48014;SDS011;33780;51.034;7.120;2023-01-25T02:33:28;11.70;;;4.60;;
48014;SDS011;33780;51.034;7.120;2023-01-25T02:36:12;9.98;;;4.30;;
48014;SDS011;33780;51.034;7.120;2023-01-25T02:38:43;11.25;;;4.68;;
48014;SDS011;33780;51.034;7.120;2023-01-25T02:41:23;11.55;;;4.88;;
48014;SDS011;33780;51.034;7.120;2023-01-25T02:43:55;9.82;;;4.25;;
48014;SDS011;33780;51.034;7.120;2023-01-25T02:48:47;9.98;;;4.03;;
48014;SDS011;33780;51.034;7.120;2023-01-25T02:51:12;9.77;;;4.40;;
48014;SDS011;33780;51.034;7.120;2023-01-25T02:53:38;10.20;;;4.85;;
48014;SDS011;33780;51.034;7.120;2023-01-25T02:56:04;10.70;;;4.57;;
48014;SDS011;33780;51.034;7.120;2023-01-25T02:58:29;11.90;;;4.25;;
48014;SDS011;33780;51.034;7.120;2023-01-25T03:00:55;13.90;;;5.18;;
48014;SDS011;33780;51.034;7.120;2023-01-25T03:03:21;10.70;;;4.28;;
48014;SDS011;33780;51.034;7.120;2023-01-25T03:05:47;10.85;;;4.88;;
48014;SDS011;33780;51.034;7.120;2023-01-25T03:08:12;11.45;;;4.43;;
48014;SDS011;33780;51.034;7.120;2023-01-25T03:10:37;12.98;;;4.65;;
48014;SDS011;33780;51.034;7.120;2023-01-25T03:13:02;10.68;;;4.53;;
48014;SDS011;33780;51.034;7.120;2023-01-25T03:15:28;14.95;;;5.38;;
48014;SDS011;33780;51.034;7.120;2023-01-25T03:17:54;10.93;;;4.63;;
48014;SDS011;33780;51.034;7.120;2023-01-25T03:20:20;12.45;;;4.68;;
48014;SDS011;33780;51.034;7.120;2023-01-25T03:22:46;14.85;;;4.60;;
48014;SDS011;33780;51.034;7.120;2023-01-25T03:25:11;10.50;;;4.72;;
48014;SDS011;33780;51.034;7.120;2023-01-25T03:27:36;9.68;;;4.45;;
48014;SDS011;33780;51.034;7.120;2023-01-25T03:30:02;10.02;;;4.32;;
48014;SDS011;33780;51.034;7.120;2023-01-25T03:32:28;10.80;;;4.53;;
48014;SDS011;33780;51.034;7.120;2023-01-25T03:34:53;11.55;;;4.55;;
48014;SDS011;33780;51.034;7.120;2023-01-25T03:37:18;12.30;;;4.95;;
48014;SDS011;33780;51.034;7.120;2023-01-25T03:39:44;13.68;;;5.15;;
48014;SDS011;33780;51.034;7.120;2023-01-25T03:42:09;9.73;;;4.57;;
48014;SDS011;33780;51.034;7.120;2023-01-25T03:44:34;11.07;;;4.13;;
48014;SDS011;33780;51.034;7.120;2023-01-25T03:47:00;9.30;;;4.10;;
48014;SDS011;33780;51.034;7.120;2023-01-25T03:49:25;11.80;;;5.07;;
48014;SDS011;33780;51.034;7.120;2023-01-25T03:51:51;9.75;;;4.35;;
48014;SDS011;33780;51.034;7.120;2023-01-25T03:54:17;10.98;;;4.35;;
48014;SDS011;33780;51.034;7.120;2023-01-25T03:56:42;11.68;;;4.93;;
48014;SDS011;33780;51.034;7.120;2023-01-25T03:59:09;8.90;;;4.18;;
48014;SDS011;33780;51.034;7.120;2023-01-25T04:01:35;11.00;;;4.80;;
48014;SDS011;33780;51.034;7.120;2023-01-25T04:04:00;11.10;;;4.75;;
48014;SDS011;33780;51.034;7.120;2023-01-25T04:06:25;11.43;;;4.80;;
48014;SDS011;33780;51.034;7.120;2023-01-25T04:08:51;12.20;;;4.97;;
48014;SDS011;33780;51.034;7.120;2023-01-25T04:11:16;11.35;;;4.90;;
48014;SDS011;33780;51.034;7.120;2023-01-25T04:13:41;13.80;;;4.90;;
48014;SDS011;33780;51.034;7.120;2023-01-25T04:16:07;11.18;;;5.32;;
48014;SDS011;33780;51.034;7.120;2023-01-25T04:18:35;11.93;;;5.07;;
48014;SDS011;33780;51.034;7.120;2023-01-25T04:21:01;11.45;;;4.95;;
48014;SDS011;33780;51.034;7.120;2023-01-25T04:23:26;10.43;;;4.82;;
48014;SDS011;33780;51.034;7.120;2023-01-25T04:26:02;14.07;;;5.13;;
48014;SDS011;33780;51.034;7.120;2023-01-25T04:28:33;12.82;;;5.40;;
48014;SDS011;33780;51.034;7.120;2023-01-25T04:30:59;10.63;;;4.80;;
48014;SDS011;33780;51.034;7.120;2023-01-25T04:33:25;10.85;;;4.65;;
48014;SDS011;33780;51.034;7.120;2023-01-25T04:35:51;10.93;;;4.78;;
48014;SDS011;33780;51.034;7.120;2023-01-25T04:38:16;10.70;;;4.38;;
48014;SDS011;33780;51.034;7.120;2023-01-25T04:40:42;12.57;;;5.35;;
48014;SDS011;33780;51.034;7.120;2023-01-25T04:43:08;11.57;;;4.75;;
48014;SDS011;33780;51.034;7.120;2023-01-25T04:45:36;11.40;;;4.43;;
48014;SDS011;33780;51.034;7.120;2023-01-25T04:48:02;8.48;;;4.32;;
48014;SDS011;33780;51.034;7.120;2023-01-25T04:50:29;13.85;;;5.45;;
48014;SDS011;33780;51.034;7.120;2023-01-25T04:52:55;10.38;;;4.57;;
48014;SDS011;33780;51.034;7.120;2023-01-25T04:55:20;12.20;;;5.03;;
48014;SDS011;33780;51.034;7.120;2023-01-25T04:57:47;12.23;;;4.90;;
48014;SDS011;33780;51.034;7.120;2023-01-25T05:00:13;11.57;;;4.35;;
48014;SDS011;33780;51.034;7.120;2023-01-25T05:02:39;10.43;;;3.95;;
48014;SDS011;33780;51.034;7.120;2023-01-25T05:05:04;10.40;;;4.80;;
48014;SDS011;33780;51.034;7.120;2023-01-25T05:07:30;9.63;;;4.25;;
48014;SDS011;33780;51.034;7.120;2023-01-25T05:09:55;11.60;;;4.93;;
48014;SDS011;33780;51.034;7.120;2023-01-25T05:12:20;9.48;;;4.43;;
48014;SDS011;33780;51.034;7.120;2023-01-25T05:14:46;14.57;;;4.78;;
48014;SDS011;33780;51.034;7.120;2023-01-25T05:17:11;10.50;;;4.78;;
48014;SDS011;33780;51.034;7.120;2023-01-25T05:19:36;10.98;;;5.00;;
48014;SDS011;33780;51.034;7.120;2023-01-25T05:22:02;12.00;;;5.15;;
48014;SDS011;33780;51.034;7.120;2023-01-25T05:24:31;11.75;;;4.85;;
48014;SDS011;33780;51.034;7.120;2023-01-25T05:27:05;12.10;;;4.72;;
48014;SDS011;33780;51.034;7.120;2023-01-25T05:29:33;11.93;;;5.07;;
48014;SDS011;33780;51.034;7.120;2023-01-25T05:32:04;12.57;;;5.30;;
48014;SDS011;33780;51.034;7.120;2023-01-25T05:34:34;14.40;;;6.03;;
48014;SDS011;33780;51.034;7.120;2023-01-25T05:37:00;13.15;;;5.78;;
48014;SDS011;33780;51.034;7.120;2023-01-25T05:39:33;15.50;;;6.05;;
48014;SDS011;33780;51.034;7.120;2023-01-25T05:41:58;12.48;;;5.57;;
48014;SDS011;33780;51.034;7.120;2023-01-25T05:44:30;13.38;;;5.50;;
48014;SDS011;33780;51.034;7.120;2023-01-25T05:46:55;13.20;;;5.38;;
48014;SDS011;33780;51.034;7.120;2023-01-25T05:49:20;10.05;;;4.63;;
48014;SDS011;33780;51.034;7.120;2023-01-25T05:51:45;10.38;;;4.60;;
48014;SDS011;33780;51.034;7.120;2023-01-25T05:54:12;10.40;;;4.65;;
48014;SDS011;33780;51.034;7.120;2023-01-25T05:56:39;9.48;;;4.32;;
48014;SDS011;33780;51.034;7.120;2023-01-25T05:59:04;10.43;;;4.65;;
48014;SDS011;33780;51.034;7.120;2023-01-25T06:01:30;9.93;;;4.22;;
48014;SDS011;33780;51.034;7.120;2023-01-25T06:04:01;10.20;;;4.97;;
48014;SDS011;33780;51.034;7.120;2023-01-25T06:06:32;10.80;;;4.65;;
48014;SDS011;33780;51.034;7.120;2023-01-25T06:09:03;10.10;;;4.90;;
48014;SDS011;33780;51.034;7.120;2023-01-25T06:11:29;9.60;;;4.22;;
48014;SDS011;33780;51.034;7.120;2023-01-25T06:13:54;9.00;;;4.28;;
48014;SDS011;33780;51.034;7.120;2023-01-25T06:16:19;10.18;;;4.70;;
48014;SDS011;33780;51.034;7.120;2023-01-25T06:18:44;12.48;;;5.38;;
48014;SDS011;33780;51.034;7.120;2023-01-25T06:21:10;11.35;;;5.13;;
48014;SDS011;33780;51.034;7.120;2023-01-25T06:23:35;12.82;;;5.45;;
48014;SDS011;33780;51.034;7.120;2023-01-25T06:26:02;11.82;;;4.97;;
48014;SDS011;33780;51.034;7.120;2023-01-25T06:28:30;11.77;;;4.35;;
48014;SDS011;33780;51.034;7.120;2023-01-25T06:31:03;11.38;;;4.78;;
48014;SDS011;33780;51.034;7.120;2023-01-25T06:33:36;12.73;;;5.18;;
48014;SDS011;33780;51.034;7.120;2023-01-25T06:36:12;12.35;;;4.68;;
48014;SDS011;33780;51.034;7.120;2023-01-25T06:38:39;13.45;;;5.30;;
48014;SDS011;33780;51.034;7.120;2023-01-25T06:41:05;10.95;;;4.80;;
48014;SDS011;33780;51.034;7.120;2023-01-25T06:43:32;13.82;;;5.35;;
48014;SDS011;33780;51.034;7.120;2023-01-25T06:48:47;12.73;;;4.82;;
48014;SDS011;33780;51.034;7.120;2023-01-25T06:51:13;13.25;;;5.15;;
48014;SDS011;33780;51.034;7.120;2023-01-25T06:53:40;14.82;;;5.80;;
48014;SDS011;33780;51.034;7.120;2023-01-25T06:56:08;12.57;;;4.82;;
48014;SDS011;33780;51.034;7.120;2023-01-25T06:58:35;14.25;;;5.10;;
48014;SDS011;33780;51.034;7.120;2023-01-25T07:01:05;13.88;;;5.57;;
48014;SDS011;33780;51.034;7.120;2023-01-25T07:03:37;16.20;;;6.00;;
48014;SDS011;33780;51.034;7.120;2023-01-25T07:06:04;11.82;;;5.53;;
48014;SDS011;33780;51.034;7.120;2023-01-25T07:08:45;13.20;;;4.63;;
48014;SDS011;33780;51.034;7.120;2023-01-25T07:14:44;14.38;;;5.80;;
48014;SDS011;33780;51.034;7.120;2023-01-25T07:18:23;15.18;;;5.82;;
48014;SDS011;33780;51.034;7.120;2023-01-25T07:20:35;12.60;;;5.53;;
48014;SDS011;33780;51.034;7.120;2023-01-25T07:23:30;11.93;;;5.30;;
48014;SDS011;33780;51.034;7.120;2023-01-25T07:29:10;12.70;;;4.67;;
48014;SDS011;33780;51.034;7.120;2023-01-25T07:31:45;13.40;;;5.50;;
48014;SDS011;33780;51.034;7.120;2023-01-25T07:34:24;14.35;;;6.18;;
48014;SDS011;33780;51.034;7.120;2023-01-25T07:37:17;11.27;;;4.68;;
48014;SDS011;33780;51.034;7.120;2023-01-25T07:40:11;16.15;;;5.35;;
48014;SDS011;33780;51.034;7.120;2023-01-25T07:42:48;11.02;;;4.70;;
48014;SDS011;33780;51.034;7.120;2023-01-25T07:48:45;11.48;;;4.68;;
48014;SDS011;33780;51.034;7.120;2023-01-25T07:51:41;9.32;;;4.57;;
48014;SDS011;33780;51.034;7.120;2023-01-25T07:54:20;9.65;;;4.47;;
48014;SDS011;33780;51.034;7.120;2023-01-25T08:03:05;13.15;;;4.72;;
48014;SDS011;33780;51.034;7.120;2023-01-25T08:05:47;11.02;;;4.75;;
48014;SDS011;33780;51.034;7.120;2023-01-25T08:08:22;13.20;;;5.03;;
48014;SDS011;33780;51.034;7.120;2023-01-25T08:11:20;13.10;;;5.07;;
48014;SDS011;33780;51.034;7.120;2023-01-25T08:14:31;11.10;;;4.70;;
48014;SDS011;33780;51.034;7.120;2023-01-25T08:17:16;10.80;;;5.00;;
48014;SDS011;33780;51.034;7.120;2023-01-25T08:19:44;11.88;;;5.22;;
48014;SDS011;33780;51.034;7.120;2023-01-25T08:22:09;12.23;;;5.35;;
48014;SDS011;33780;51.034;7.120;2023-01-25T08:27:20;11.02;;;4.40;;
48014;SDS011;33780;51.034;7.120;2023-01-25T08:30:04;13.57;;;5.05;;
48014;SDS011;33780;51.034;7.120;2023-01-25T08:35:58;11.52;;;4.75;;
48014;SDS011;33780;51.034;7.120;2023-01-25T08:38:37;9.57;;;4.82;;
48014;SDS011;33780;51.034;7.120;2023-01-25T08:41:30;13.95;;;5.32;;
48014;SDS011;33780;51.034;7.120;2023-01-25T08:44:06;11.25;;;4.43;;
48014;SDS011;33780;51.034;7.120;2023-01-25T08:52:03;13.50;;;5.30;;
48014;SDS011;33780;51.034;7.120;2023-01-25T08:55:05;12.48;;;5.30;;
48014;SDS011;33780;51.034;7.120;2023-01-25T08:57:55;14.25;;;4.78;;
48014;SDS011;33780;51.034;7.120;2023-01-25T09:04:00;12.20;;;4.70;;
48014;SDS011;33780;51.034;7.120;2023-01-25T09:07:21;11.55;;;4.43;;
48014;SDS011;33780;51.034;7.120;2023-01-25T09:10:04;13.55;;;5.45;;
48014;SDS011;33780;51.034;7.120;2023-01-25T09:13:06;13.20;;;4.95;;
48014;SDS011;33780;51.034;7.120;2023-01-25T09:15:43;16.17;;;5.28;;
48014;SDS011;33780;51.034;7.120;2023-01-25T09:18:15;15.25;;;5.75;;
48014;SDS011;33780;51.034;7.120;2023-01-25T09:21:09;14.80;;;5.90;;
48014;SDS011;33780;51.034;7.120;2023-01-25T09:24:08;11.77;;;4.78;;
48014;SDS011;33780;51.034;7.120;2023-01-25T09:26:40;13.05;;;5.22;;
48014;SDS011;33780;51.034;7.120;2023-01-25T09:29:22;15.43;;;5.25;;
48014;SDS011;33780;51.034;7.120;2023-01-25T09:32:20;11.48;;;4.65;;
48014;SDS011;33780;51.034;7.120;2023-01-25T09:35:07;11.00;;;4.78;;
48014;SDS011;33780;51.034;7.120;2023-01-25T09:40:37;12.25;;;4.95;;
48014;SDS011;33780;51.034;7.120;2023-01-25T09:46:44;15.95;;;5.55;;
48014;SDS011;33780;51.034;7.120;2023-01-25T09:52:47;15.32;;;5.75;;
48014;SDS011;33780;51.034;7.120;2023-01-25T09:59:11;15.15;;;5.57;;
48014;SDS011;33780;51.034;7.120;2023-01-25T10:02:12;14.07;;;6.15;;
48014;SDS011;33780;51.034;7.120;2023-01-25T10:05:10;14.65;;;5.95;;
48014;SDS011;33780;51.034;7.120;2023-01-25T10:34:48;17.25;;;5.55;;
48014;SDS011;33780;51.034;7.120;2023-01-25T10:37:26;15.80;;;6.55;;
48014;SDS011;33780;51.034;7.120;2023-01-25T10:46:23;14.55;;;5.72;;
48014;SDS011;33780;51.034;7.120;2023-01-25T10:55:46;19.05;;;6.07;;
48014;SDS011;33780;51.034;7.120;2023-01-25T10:58:44;16.08;;;6.30;;
48014;SDS011;33780;51.034;7.120;2023-01-25T11:01:32;18.73;;;6.75;;
48014;SDS011;33780;51.034;7.120;2023-01-25T11:04:41;19.20;;;6.97;;
48014;SDS011;33780;51.034;7.120;2023-01-25T11:10:35;18.25;;;6.47;;
48014;SDS011;33780;51.034;7.120;2023-01-25T11:13:43;16.27;;;6.53;;
48014;SDS011;33780;51.034;7.120;2023-01-25T11:19:40;17.67;;;7.03;;
48014;SDS011;33780;51.034;7.120;2023-01-25T11:23:20;18.15;;;6.82;;
48014;SDS011;33780;51.034;7.120;2023-01-25T11:26:18;18.52;;;6.40;;
48014;SDS011;33780;51.034;7.120;2023-01-25T11:36:21;17.77;;;6.00;;
48014;SDS011;33780;51.034;7.120;2023-01-25T12:12:51;20.50;;;7.05;;
48014;SDS011;33780;51.034;7.120;2023-01-25T12:19:05;20.33;;;7.03;;
48014;SDS011;33780;51.034;7.120;2023-01-25T12:25:18;20.08;;;7.43;;
48014;SDS011;33780;51.034;7.120;2023-01-25T12:34:40;21.60;;;7.65;;
48014;SDS011;33780;51.034;7.120;2023-01-25T12:37:29;23.50;;;8.00;;
48014;SDS011;33780;51.034;7.120;2023-01-25T12:40:25;20.88;;;6.93;;
48014;SDS011;33780;51.034;7.120;2023-01-25T12:43:22;22.00;;;7.80;;
48014;SDS011;33780;51.034;7.120;2023-01-25T12:55:51;23.17;;;7.65;;
48014;SDS011;33780;51.034;7.120;2023-01-25T13:06:56;24.30;;;8.23;;
48014;SDS011;33780;51.034;7.120;2023-01-25T13:56:46;20.98;;;8.52;;
48014;SDS011;33780;51.034;7.120;2023-01-25T14:02:26;24.73;;;9.05;;
48014;SDS011;33780;51.034;7.120;2023-01-25T14:08:04;24.70;;;8.98;;
48014;SDS011;33780;51.034;7.120;2023-01-25T14:10:38;24.58;;;8.25;;
48014;SDS011;33780;51.034;7.120;2023-01-25T14:13:53;26.08;;;8.70;;
48014;SDS011;33780;51.034;7.120;2023-01-25T14:20:00;26.55;;;9.90;;
48014;SDS011;33780;51.034;7.120;2023-01-25T14:26:32;24.35;;;8.52;;
48014;SDS011;33780;51.034;7.120;2023-01-25T14:38:42;28.65;;;10.27;;
48014;SDS011;33780;51.034;7.120;2023-01-25T14:57:05;29.50;;;10.07;;
48014;SDS011;33780;51.034;7.120;2023-01-25T15:00:16;25.40;;;9.52;;
48014;SDS011;33780;51.034;7.120;2023-01-25T15:03:16;26.92;;;8.98;;
48014;SDS011;33780;51.034;7.120;2023-01-25T15:06:16;25.08;;;8.38;;
48014;SDS011;33780;51.034;7.120;2023-01-25T15:08:52;28.80;;;10.10;;
48014;SDS011;33780;51.034;7.120;2023-01-25T15:11:51;29.48;;;8.93;;
48014;SDS011;33780;51.034;7.120;2023-01-25T15:14:45;23.10;;;8.23;;
48014;SDS011;33780;51.034;7.120;2023-01-25T15:23:41;27.25;;;9.07;;
48014;SDS011;33780;51.034;7.120;2023-01-25T15:26:22;24.30;;;8.18;;
48014;SDS011;33780;51.034;7.120;2023-01-25T15:29:19;25.67;;;7.95;;
48014;SDS011;33780;51.034;7.120;2023-01-25T15:32:20;25.33;;;8.85;;
48014;SDS011;33780;51.034;7.120;2023-01-25T15:35:00;27.42;;;9.75;;
48014;SDS011;33780;51.034;7.120;2023-01-25T15:44:19;22.13;;;7.82;;
48014;SDS011;33780;51.034;7.120;2023-01-25T15:46:58;27.45;;;8.98;;
48014;SDS011;33780;51.034;7.120;2023-01-25T15:49:50;28.65;;;10.02;;
48014;SDS011;33780;51.034;7.120;2023-01-25T15:52:41;31.55;;;9.60;;
48014;SDS011;33780;51.034;7.120;2023-01-25T16:01:41;23.83;;;9.25;;
48014;SDS011;33780;51.034;7.120;2023-01-25T16:14:24;28.17;;;9.57;;
48014;SDS011;33780;51.034;7.120;2023-01-25T16:16:55;25.83;;;9.52;;
48014;SDS011;33780;51.034;7.120;2023-01-25T16:19:42;29.67;;;10.40;;
48014;SDS011;33780;51.034;7.120;2023-01-25T16:22:16;23.35;;;9.32;;
48014;SDS011;33780;51.034;7.120;2023-01-25T16:27:37;27.35;;;9.68;;
48014;SDS011;33780;51.034;7.120;2023-01-25T16:30:15;27.55;;;10.45;;
48014;SDS011;33780;51.034;7.120;2023-01-25T16:32:49;21.25;;;8.85;;
48014;SDS011;33780;51.034;7.120;2023-01-25T16:35:27;21.52;;;7.93;;
48014;SDS011;33780;51.034;7.120;2023-01-25T16:38:07;24.90;;;9.50;;
48014;SDS011;33780;51.034;7.120;2023-01-25T16:41:11;32.67;;;9.90;;
48014;SDS011;33780;51.034;7.120;2023-01-25T17:00:17;25.60;;;9.18;;
48014;SDS011;33780;51.034;7.120;2023-01-25T17:03:10;33.97;;;10.88;;
48014;SDS011;33780;51.034;7.120;2023-01-25T17:05:41;23.42;;;8.80;;
48014;SDS011;33780;51.034;7.120;2023-01-25T17:08:13;26.55;;;9.57;;
48014;SDS011;33780;51.034;7.120;2023-01-25T17:10:48;26.38;;;9.38;;
48014;SDS011;33780;51.034;7.120;2023-01-25T17:13:23;24.70;;;9.48;;
48014;SDS011;33780;51.034;7.120;2023-01-25T17:15:51;31.35;;;10.23;;
48014;SDS011;33780;51.034;7.120;2023-01-25T17:18:22;28.02;;;10.45;;
48014;SDS011;33780;51.034;7.120;2023-01-25T17:21:03;30.33;;;10.13;;
48014;SDS011;33780;51.034;7.120;2023-01-25T17:23:37;28.25;;;8.80;;
48014;SDS011;33780;51.034;7.120;2023-01-25T17:26:04;25.60;;;10.05;;
48014;SDS011;33780;51.034;7.120;2023-01-25T17:28:40;33.35;;;11.30;;
48014;SDS011;33780;51.034;7.120;2023-01-25T17:31:23;27.63;;;10.43;;
48014;SDS011;33780;51.034;7.120;2023-01-25T17:34:20;32.88;;;10.48;;
48014;SDS011;33780;51.034;7.120;2023-01-25T17:36:46;32.85;;;11.50;;
48014;SDS011;33780;51.034;7.120;2023-01-25T17:39:13;31.65;;;11.43;;
48014;SDS011;33780;51.034;7.120;2023-01-25T17:41:49;27.55;;;9.55;;
48014;SDS011;33780;51.034;7.120;2023-01-25T17:44:18;29.63;;;10.25;;
48014;SDS011;33780;51.034;7.120;2023-01-25T17:46:45;26.25;;;10.15;;
48014;SDS011;33780;51.034;7.120;2023-01-25T17:49:12;27.00;;;9.82;;
48014;SDS011;33780;51.034;7.120;2023-01-25T17:51:38;30.20;;;11.18;;
48014;SDS011;33780;51.034;7.120;2023-01-25T17:54:04;31.63;;;10.65;;
48014;SDS011;33780;51.034;7.120;2023-01-25T17:56:30;26.45;;;10.35;;
48014;SDS011;33780;51.034;7.120;2023-01-25T17:58:55;29.02;;;9.85;;
48014;SDS011;33780;51.034;7.120;2023-01-25T18:01:23;26.98;;;9.30;;
48014;SDS011;33780;51.034;7.120;2023-01-25T18:03:53;27.05;;;9.93;;
48014;SDS011;33780;51.034;7.120;2023-01-25T18:06:20;26.55;;;9.27;;
48014;SDS011;33780;51.034;7.120;2023-01-25T18:08:49;26.33;;;9.93;;
48014;SDS011;33780;51.034;7.120;2023-01-25T18:11:19;29.23;;;9.82;;
48014;SDS011;33780;51.034;7.120;2023-01-25T18:14:05;24.00;;;9.38;;
48014;SDS011;33780;51.034;7.120;2023-01-25T18:16:34;30.60;;;10.73;;
48014;SDS011;33780;51.034;7.120;2023-01-25T18:19:01;25.23;;;9.43;;
48014;SDS011;33780;51.034;7.120;2023-01-25T18:21:27;28.48;;;9.27;;
48014;SDS011;33780;51.034;7.120;2023-01-25T18:23:56;27.35;;;9.48;;
48014;SDS011;33780;51.034;7.120;2023-01-25T18:29:39;30.73;;;9.73;;
48014;SDS011;33780;51.034;7.120;2023-01-25T18:32:04;28.35;;;9.75;;
48014;SDS011;33780;51.034;7.120;2023-01-25T18:34:30;27.13;;;10.40;;
48014;SDS011;33780;51.034;7.120;2023-01-25T18:36:55;29.15;;;9.50;;
48014;SDS011;33780;51.034;7.120;2023-01-25T18:39:23;25.33;;;8.65;;
48014;SDS011;33780;51.034;7.120;2023-01-25T18:41:49;26.48;;;8.93;;
48014;SDS011;33780;51.034;7.120;2023-01-25T18:44:14;24.90;;;8.27;;
48014;SDS011;33780;51.034;7.120;2023-01-25T18:46:39;23.85;;;8.55;;
48014;SDS011;33780;51.034;7.120;2023-01-25T18:49:06;21.83;;;7.80;;
48014;SDS011;33780;51.034;7.120;2023-01-25T18:51:32;26.40;;;8.02;;
48014;SDS011;33780;51.034;7.120;2023-01-25T18:53:57;30.88;;;9.10;;
48014;SDS011;33780;51.034;7.120;2023-01-25T18:56:23;23.33;;;8.18;;
48014;SDS011;33780;51.034;7.120;2023-01-25T18:58:49;25.58;;;8.07;;
48014;SDS011;33780;51.034;7.120;2023-01-25T19:01:18;26.35;;;7.70;;
48014;SDS011;33780;51.034;7.120;2023-01-25T19:03:45;20.02;;;7.70;;
48014;SDS011;33780;51.034;7.120;2023-01-25T19:06:12;25.90;;;7.22;;
48014;SDS011;33780;51.034;7.120;2023-01-25T19:08:38;28.27;;;7.82;;
48014;SDS011;33780;51.034;7.120;2023-01-25T19:11:05;23.98;;;7.55;;
48014;SDS011;33780;51.034;7.120;2023-01-25T19:13:37;22.33;;;7.40;;
48014;SDS011;33780;51.034;7.120;2023-01-25T19:16:25;28.30;;;8.38;;
48014;SDS011;33780;51.034;7.120;2023-01-25T19:18:51;24.10;;;7.30;;
48014;SDS011;33780;51.034;7.120;2023-01-25T19:21:22;24.00;;;7.00;;
48014;SDS011;33780;51.034;7.120;2023-01-25T19:23:52;22.00;;;7.53;;
48014;SDS011;33780;51.034;7.120;2023-01-25T19:26:19;21.48;;;6.72;;
48014;SDS011;33780;51.034;7.120;2023-01-25T19:28:45;21.63;;;7.65;;
48014;SDS011;33780;51.034;7.120;2023-01-25T19:31:12;27.90;;;7.97;;
48014;SDS011;33780;51.034;7.120;2023-01-25T19:33:39;24.80;;;7.45;;
48014;SDS011;33780;51.034;7.120;2023-01-25T19:36:06;22.70;;;7.30;;
48014;SDS011;33780;51.034;7.120;2023-01-25T19:38:57;21.35;;;7.13;;
48014;SDS011;33780;51.034;7.120;2023-01-25T19:41:25;25.45;;;8.07;;
48014;SDS011;33780;51.034;7.120;2023-01-25T19:43:52;22.50;;;7.22;;
48014;SDS011;33780;51.034;7.120;2023-01-25T19:46:31;20.15;;;7.55;;
48014;SDS011;33780;51.034;7.120;2023-01-25T19:49:05;18.55;;;7.18;;
48014;SDS011;33780;51.034;7.120;2023-01-25T19:51:36;24.08;;;8.07;;
48014;SDS011;33780;51.034;7.120;2023-01-25T19:54:14;19.25;;;6.32;;
48014;SDS011;33780;51.034;7.120;2023-01-25T19:56:41;18.65;;;7.10;;
48014;SDS011;33780;51.034;7.120;2023-01-25T19:59:10;18.27;;;6.65;;
48014;SDS011;33780;51.034;7.120;2023-01-25T20:01:45;20.17;;;6.05;;
48014;SDS011;33780;51.034;7.120;2023-01-25T20:04:12;17.98;;;5.93;;
48014;SDS011;33780;51.034;7.120;2023-01-25T20:06:39;17.25;;;6.13;;
48014;SDS011;33780;51.034;7.120;2023-01-25T20:09:05;18.23;;;5.75;;
48014;SDS011;33780;51.034;7.120;2023-01-25T20:11:33;17.67;;;5.97;;
48014;SDS011;33780;51.034;7.120;2023-01-25T20:14:03;16.23;;;6.43;;
48014;SDS011;33780;51.034;7.120;2023-01-25T20:16:33;17.98;;;5.82;;
48014;SDS011;33780;51.034;7.120;2023-01-25T20:19:02;20.60;;;6.18;;
48014;SDS011;33780;51.034;7.120;2023-01-25T20:21:28;22.80;;;6.53;;
48014;SDS011;33780;51.034;7.120;2023-01-25T20:24:04;20.45;;;6.70;;
48014;SDS011;33780;51.034;7.120;2023-01-25T20:26:31;14.55;;;5.70;;
48014;SDS011;33780;51.034;7.120;2023-01-25T20:29:15;17.48;;;6.30;;
48014;SDS011;33780;51.034;7.120;2023-01-25T20:31:52;16.42;;;6.43;;